createdAt,value
2023-07-19T00:00:00.717Z,12.25
2023-07-19T00:00:15.091Z,11.20
2023-07-19T00:00:48.032Z,9.40
2023-07-19T00:01:19.835Z,10.88
2023-07-19T00:01:32.976Z,9.95
2023-07-19T00:01:46.657Z,11.52
2023-07-19T00:01:59.428Z,14.02
2023-07-19T00:02:12.135Z,11.93
2023-07-19T00:02:24.801Z,11.48
2023-07-19T00:02:37.384Z,13.93
2023-07-19T00:02:49.991Z,14.57
2023-07-19T00:03:02.698Z,10.98
2023-07-19T00:03:15.390Z,11.57
2023-07-19T00:03:28.052Z,10.70
2023-07-19T00:03:40.652Z,11.25
2023-07-19T00:03:54.263Z,9.30
2023-07-19T00:04:06.884Z,8.23
2023-07-19T00:04:19.503Z,8.75
2023-07-19T00:04:32.226Z,9.07
2023-07-19T00:04:44.821Z,8.32
2023-07-19T00:04:57.374Z,10.57
2023-07-19T00:05:10.509Z,12.68
2023-07-19T00:05:23.135Z,10.70
2023-07-19T00:05:36.003Z,9.73
2023-07-19T00:05:50.224Z,10.45
2023-07-19T00:06:03.027Z,13.02
2023-07-19T00:06:15.720Z,10.65
2023-07-19T00:06:28.345Z,7.75
2023-07-19T00:06:40.872Z,6.82
2023-07-19T00:06:53.471Z,7.25
2023-07-19T00:07:06.626Z,7.30
2023-07-19T00:07:19.286Z,7.20
2023-07-19T00:07:32.088Z,8.87
2023-07-19T00:07:46.103Z,9.32
2023-07-19T00:07:59.069Z,8.48
2023-07-19T00:08:12.726Z,7.57
2023-07-19T00:08:25.308Z,9.23
2023-07-19T00:08:37.948Z,10.23
2023-07-19T00:08:50.604Z,9.73
2023-07-19T00:09:03.392Z,8.50
2023-07-19T00:09:16.968Z,8.45
2023-07-19T00:09:29.828Z,7.55
2023-07-19T00:09:42.396Z,6.78
2023-07-19T00:09:54.982Z,6.45
2023-07-19T00:10:08.441Z,6.68
2023-07-19T00:10:21.078Z,8.18
2023-07-19T00:10:33.671Z,9.15
2023-07-19T00:10:46.356Z,12.20
2023-07-19T00:10:59.125Z,13.45
2023-07-19T00:11:12.688Z,8.98
2023-07-19T00:11:25.591Z,8.90
2023-07-19T00:11:38.199Z,8.55
2023-07-19T00:11:50.773Z,8.05
2023-07-19T00:12:03.853Z,7.63
2023-07-19T00:12:16.558Z,7.03
2023-07-19T00:12:33.929Z,9.23
2023-07-19T00:12:56.773Z,9.68
2023-07-19T00:13:11.023Z,9.52
2023-07-19T00:13:24.481Z,9.40
2023-07-19T00:13:37.295Z,9.38
2023-07-19T00:13:49.859Z,9.13
2023-07-19T00:14:06.985Z,9.15
2023-07-19T00:14:19.949Z,6.55
2023-07-19T00:14:33.891Z,7.28
2023-07-19T00:14:46.489Z,7.72
2023-07-19T00:14:59.135Z,6.90
2023-07-19T00:15:12.866Z,6.88
2023-07-19T00:15:25.789Z,5.95
2023-07-19T00:15:38.663Z,7.68
2023-07-19T00:15:51.198Z,8.02
2023-07-19T00:16:04.361Z,8.27
2023-07-19T00:16:17.020Z,8.52
2023-07-19T00:16:29.756Z,7.97
2023-07-19T00:16:42.387Z,8.52
2023-07-19T00:16:55.144Z,7.90
2023-07-19T00:17:08.804Z,7.22
2023-07-19T00:17:21.678Z,6.93
2023-07-19T00:17:34.371Z,7.60
2023-07-19T00:17:46.968Z,8.07
2023-07-19T00:17:59.566Z,8.30
2023-07-19T00:18:12.401Z,7.53
2023-07-19T00:18:25.008Z,7.10
2023-07-19T00:18:37.661Z,7.82
2023-07-19T00:18:50.229Z,7.28
2023-07-19T00:19:21.310Z,6.68
2023-07-19T00:19:34.531Z,7.95
2023-07-19T00:19:47.120Z,6.70
2023-07-19T00:19:59.711Z,5.45
2023-07-19T00:20:12.750Z,5.25
2023-07-19T00:20:25.333Z,6.33
2023-07-19T00:20:37.931Z,6.55
2023-07-19T00:20:50.606Z,7.60
2023-07-19T00:21:04.300Z,7.78
2023-07-19T00:21:17.119Z,7.93
2023-07-19T00:21:29.707Z,6.25
2023-07-19T00:21:42.272Z,6.60
2023-07-19T00:21:54.832Z,5.90
2023-07-19T00:22:08.708Z,6.13
2023-07-19T00:22:21.251Z,8.05
2023-07-19T00:22:33.944Z,7.65
2023-07-19T00:22:47.668Z,6.20
2023-07-19T00:23:00.356Z,7.45
2023-07-19T00:23:13.115Z,7.95
2023-07-19T00:23:25.858Z,8.43
2023-07-19T00:23:39.488Z,8.27
2023-07-19T00:23:53.344Z,5.93
2023-07-19T00:24:06.664Z,6.35
2023-07-19T00:24:19.260Z,6.90
2023-07-19T00:24:32.879Z,9.77
2023-07-19T00:24:45.451Z,9.23
2023-07-19T00:24:58.320Z,6.20
2023-07-19T00:25:11.177Z,5.65
2023-07-19T00:25:23.734Z,5.30
2023-07-19T00:25:36.321Z,5.70
2023-07-19T00:25:49.233Z,6.60
2023-07-19T00:26:01.921Z,6.97
2023-07-19T00:26:15.682Z,6.20
2023-07-19T00:26:28.326Z,7.38
2023-07-19T00:26:41.237Z,7.85
2023-07-19T00:26:54.063Z,7.50
2023-07-19T00:27:07.043Z,6.25
2023-07-19T00:27:19.639Z,5.40
2023-07-19T00:27:32.193Z,5.32
2023-07-19T00:27:44.854Z,5.53
2023-07-19T00:27:57.444Z,5.88
2023-07-19T00:28:11.002Z,5.03
2023-07-19T00:28:23.573Z,4.68
2023-07-19T00:28:36.150Z,4.78
2023-07-19T00:28:49.315Z,4.78
2023-07-19T00:29:02.200Z,5.40
2023-07-19T00:29:14.787Z,5.15
2023-07-19T00:29:27.423Z,5.43
2023-07-19T00:29:41.370Z,6.63
2023-07-19T00:29:53.954Z,7.97
2023-07-19T00:30:08.834Z,7.00
2023-07-19T00:30:21.424Z,5.18
2023-07-19T00:30:34.358Z,4.80
2023-07-19T00:30:46.933Z,8.02
2023-07-19T00:31:03.354Z,7.47
2023-07-19T00:31:15.899Z,4.72
2023-07-19T00:31:28.493Z,5.53
2023-07-19T00:31:42.028Z,6.13
2023-07-19T00:31:54.576Z,5.88
2023-07-19T00:32:07.898Z,6.68
2023-07-19T00:32:20.561Z,6.30
2023-07-19T00:32:33.120Z,5.80
2023-07-19T00:32:45.764Z,8.43
2023-07-19T00:32:58.645Z,8.50
2023-07-19T00:33:11.229Z,6.72
2023-07-19T00:33:25.421Z,7.00
2023-07-19T00:33:37.972Z,6.28
2023-07-19T00:33:50.567Z,4.75
2023-07-19T00:34:03.219Z,4.95
2023-07-19T00:34:16.079Z,5.68
2023-07-19T00:34:28.714Z,6.90
2023-07-19T00:34:41.388Z,6.95
2023-07-19T00:34:54.319Z,5.68
2023-07-19T00:35:08.142Z,5.30
2023-07-19T00:35:21.913Z,5.90
2023-07-19T00:35:34.657Z,5.57
2023-07-19T00:35:47.154Z,6.97
2023-07-19T00:35:59.698Z,7.72
2023-07-19T00:36:12.900Z,6.05
2023-07-19T00:36:25.459Z,5.60
2023-07-19T00:36:38.064Z,5.97
2023-07-19T00:36:51.089Z,5.22
2023-07-19T00:37:03.969Z,4.93
2023-07-19T00:37:17.759Z,5.55
2023-07-19T00:37:30.404Z,6.95
2023-07-19T00:37:44.258Z,7.75
2023-07-19T00:37:56.811Z,6.38
2023-07-19T00:38:09.346Z,6.38
2023-07-19T00:38:22.929Z,6.22
2023-07-19T00:38:35.512Z,6.75
2023-07-19T00:38:48.076Z,6.30
2023-07-19T00:39:00.605Z,6.18
2023-07-19T00:39:13.361Z,5.72
2023-07-19T00:39:26.908Z,5.53
2023-07-19T00:39:39.512Z,5.50
2023-07-19T00:39:52.043Z,6.45
2023-07-19T00:40:06.012Z,6.50
2023-07-19T00:40:18.726Z,5.75
2023-07-19T00:40:33.438Z,5.78
2023-07-19T00:40:46.281Z,6.15
2023-07-19T00:40:58.883Z,6.35
2023-07-19T00:41:12.360Z,6.03
2023-07-19T00:41:25.031Z,5.43
2023-07-19T00:41:37.559Z,5.15
2023-07-19T00:41:50.112Z,4.93
2023-07-19T00:42:02.714Z,6.80
2023-07-19T00:42:15.255Z,6.68
2023-07-19T00:42:27.886Z,6.68
2023-07-19T00:42:40.475Z,5.60
2023-07-19T00:42:56.440Z,5.28
2023-07-19T00:43:11.220Z,5.25
2023-07-19T00:43:23.719Z,5.75
2023-07-19T00:43:37.555Z,5.35
2023-07-19T00:43:50.096Z,5.68
2023-07-19T00:44:04.719Z,5.80
2023-07-19T00:44:17.353Z,6.40
2023-07-19T00:44:29.970Z,6.18
2023-07-19T00:44:44.287Z,5.28
2023-07-19T00:44:56.884Z,5.32
2023-07-19T00:45:10.434Z,5.45
2023-07-19T00:45:24.167Z,5.78
2023-07-19T00:45:37.333Z,5.50
2023-07-19T00:45:54.347Z,4.80
2023-07-19T00:46:08.815Z,5.18
2023-07-19T00:46:21.981Z,5.20
2023-07-19T00:46:34.971Z,6.22
2023-07-19T00:46:47.732Z,7.85
2023-07-19T00:47:03.691Z,7.95
2023-07-19T00:47:18.493Z,6.40
2023-07-19T00:47:31.784Z,5.43
2023-07-19T00:47:44.467Z,5.65
2023-07-19T00:47:57.867Z,7.07
2023-07-19T00:48:10.816Z,7.55
2023-07-19T00:48:23.966Z,6.32
2023-07-19T00:48:37.047Z,5.03
2023-07-19T00:48:50.365Z,5.38
2023-07-19T00:49:04.308Z,6.10
2023-07-19T00:49:17.209Z,6.63
2023-07-19T00:49:30.067Z,6.13
2023-07-19T00:49:45.322Z,6.82
2023-07-19T00:49:58.374Z,6.18
2023-07-19T00:50:11.114Z,5.50
2023-07-19T00:50:24.434Z,6.03
2023-07-19T00:50:37.428Z,5.95
2023-07-19T00:50:51.416Z,5.75
2023-07-19T00:51:05.090Z,5.05
2023-07-19T00:51:19.072Z,5.20
2023-07-19T00:51:32.322Z,5.93
2023-07-19T00:51:44.929Z,6.53
2023-07-19T00:51:59.397Z,7.50
2023-07-19T00:52:12.176Z,7.60
2023-07-19T00:52:24.889Z,6.00
2023-07-19T00:52:38.417Z,6.15
2023-07-19T00:52:53.043Z,6.82
2023-07-19T00:53:06.436Z,6.43
2023-07-19T00:53:20.995Z,5.18
2023-07-19T00:53:33.896Z,6.22
2023-07-19T00:53:48.902Z,7.00
2023-07-19T00:54:02.830Z,6.55
2023-07-19T00:54:16.832Z,5.63
2023-07-19T00:54:30.149Z,4.78
2023-07-19T00:54:43.026Z,5.50
2023-07-19T00:54:56.828Z,6.30
2023-07-19T00:55:10.245Z,6.22
2023-07-19T00:55:23.011Z,6.03
2023-07-19T00:55:36.023Z,5.88
2023-07-19T00:55:50.121Z,6.18
2023-07-19T00:56:02.878Z,6.20
2023-07-19T00:56:15.632Z,5.90
2023-07-19T00:56:29.216Z,5.32
2023-07-19T00:56:43.401Z,5.43
2023-07-19T00:56:57.306Z,6.28
2023-07-19T00:57:09.850Z,6.50
2023-07-19T00:57:22.885Z,5.82
2023-07-19T00:57:35.872Z,5.45
2023-07-19T00:57:48.694Z,6.97
2023-07-19T00:58:01.332Z,8.63
2023-07-19T00:58:13.967Z,7.10
2023-07-19T00:58:27.185Z,6.22
2023-07-19T00:58:42.179Z,5.45
2023-07-19T00:58:55.010Z,5.75
2023-07-19T00:59:08.257Z,5.68
2023-07-19T00:59:23.804Z,6.30
2023-07-19T00:59:36.621Z,6.25
2023-07-19T00:59:50.689Z,5.93
2023-07-19T01:00:05.632Z,7.10
2023-07-19T01:00:20.812Z,6.65
2023-07-19T01:00:33.880Z,5.20
2023-07-19T01:00:47.597Z,5.70
2023-07-19T01:01:00.953Z,6.03
2023-07-19T01:01:13.710Z,6.70
2023-07-19T01:01:27.623Z,7.20
2023-07-19T01:01:42.938Z,6.60
2023-07-19T01:01:56.283Z,5.97
2023-07-19T01:02:09.199Z,6.82
2023-07-19T01:02:22.547Z,8.13
2023-07-19T01:02:36.210Z,7.85
2023-07-19T01:02:49.657Z,8.15
2023-07-19T01:03:02.447Z,7.82
2023-07-19T01:03:15.258Z,6.95
2023-07-19T01:03:27.858Z,5.85
2023-07-19T01:03:40.513Z,5.68
2023-07-19T01:03:53.279Z,4.97
2023-07-19T01:04:06.124Z,4.88
2023-07-19T01:04:18.830Z,4.90
2023-07-19T01:04:31.757Z,4.95
2023-07-19T01:04:46.407Z,5.00
2023-07-19T01:04:59.028Z,5.28
2023-07-19T01:05:11.720Z,5.30
2023-07-19T01:05:24.467Z,5.22
2023-07-19T01:05:37.738Z,5.03
2023-07-19T01:05:50.570Z,5.20
2023-07-19T01:06:04.825Z,5.32
2023-07-19T01:06:20.050Z,5.72
2023-07-19T01:06:32.637Z,6.97
2023-07-19T01:06:45.676Z,6.38
2023-07-19T01:06:59.742Z,5.47
2023-07-19T01:07:12.471Z,6.65
2023-07-19T01:07:25.520Z,6.60
2023-07-19T01:07:38.855Z,7.10
2023-07-19T01:07:52.011Z,7.25
2023-07-19T01:08:04.998Z,5.70
2023-07-19T01:08:19.402Z,5.78
2023-07-19T01:08:32.435Z,5.65
2023-07-19T01:08:45.054Z,6.18
2023-07-19T01:08:58.650Z,7.53
2023-07-19T01:09:12.235Z,6.82
2023-07-19T01:09:25.820Z,5.80
2023-07-19T01:09:38.421Z,4.93
2023-07-19T01:09:51.931Z,5.22
2023-07-19T01:10:05.502Z,5.63
2023-07-19T01:10:18.377Z,5.18
2023-07-19T01:10:33.377Z,4.97
2023-07-19T01:10:46.657Z,5.32
2023-07-19T01:10:59.468Z,5.47
2023-07-19T01:11:12.100Z,6.43
2023-07-19T01:11:24.980Z,6.22
2023-07-19T01:11:37.646Z,6.75
2023-07-19T01:11:50.271Z,7.18
2023-07-19T01:12:03.360Z,6.35
2023-07-19T01:12:16.953Z,5.63
2023-07-19T01:12:29.804Z,5.25
2023-07-19T01:12:42.355Z,5.00
2023-07-19T01:13:04.975Z,5.38
2023-07-19T01:13:17.586Z,5.55
2023-07-19T01:13:30.205Z,5.95
2023-07-19T01:13:51.847Z,6.20
2023-07-19T01:14:04.442Z,6.15
2023-07-19T01:14:17.999Z,5.80
2023-07-19T01:14:30.595Z,5.75
2023-07-19T01:14:43.204Z,6.32
2023-07-19T01:14:57.193Z,5.95
2023-07-19T01:15:10.602Z,6.03
2023-07-19T01:15:23.300Z,6.70
2023-07-19T01:15:36.226Z,6.70
2023-07-19T01:15:49.092Z,5.97
2023-07-19T01:16:02.993Z,5.55
2023-07-19T01:16:15.621Z,6.13
2023-07-19T01:16:28.784Z,6.30
2023-07-19T01:16:41.373Z,6.20
2023-07-19T01:16:53.950Z,5.93
2023-07-19T01:17:06.731Z,7.25
2023-07-19T01:17:19.287Z,7.25
2023-07-19T01:17:31.851Z,5.95
2023-07-19T01:17:44.799Z,5.95
2023-07-19T01:17:57.454Z,5.82
2023-07-19T01:18:11.151Z,5.22
2023-07-19T01:18:23.778Z,5.60
2023-07-19T01:18:36.327Z,6.65
2023-07-19T01:18:49.337Z,6.70
2023-07-19T01:19:02.005Z,6.32
2023-07-19T01:19:16.889Z,5.57
2023-07-19T01:19:29.481Z,5.03
2023-07-19T01:19:43.063Z,5.15
2023-07-19T01:19:55.610Z,5.38
2023-07-19T01:20:09.841Z,5.00
2023-07-19T01:20:22.750Z,7.30
2023-07-19T01:20:35.686Z,8.15
2023-07-19T01:20:48.695Z,7.85
2023-07-19T01:21:13.571Z,7.00
2023-07-19T01:21:35.022Z,5.65
2023-07-19T01:21:50.076Z,6.07
2023-07-19T01:22:02.862Z,6.43
2023-07-19T01:22:16.012Z,6.55
2023-07-19T01:22:32.994Z,7.28
2023-07-19T01:22:47.391Z,7.25
2023-07-19T01:23:00.307Z,6.13
2023-07-19T01:23:13.092Z,7.43
2023-07-19T01:23:26.740Z,8.05
2023-07-19T01:23:39.754Z,6.93
2023-07-19T01:23:52.552Z,6.03
2023-07-19T01:24:05.792Z,6.63
2023-07-19T01:24:19.010Z,6.60
2023-07-19T01:24:31.574Z,5.53
2023-07-19T01:24:44.092Z,5.55
2023-07-19T01:24:56.602Z,5.28
2023-07-19T01:25:09.681Z,5.80
2023-07-19T01:25:22.604Z,6.45
2023-07-19T01:25:36.289Z,6.00
2023-07-19T01:25:48.846Z,5.50
2023-07-19T01:26:01.412Z,5.70
2023-07-19T01:26:13.988Z,5.43
2023-07-19T01:26:26.541Z,6.13
2023-07-19T01:26:39.092Z,6.20
2023-07-19T01:26:51.700Z,5.45
2023-07-19T01:27:20.668Z,5.65
2023-07-19T01:27:33.745Z,7.32
2023-07-19T01:27:47.305Z,6.85
2023-07-19T01:27:59.978Z,5.70
2023-07-19T01:28:12.810Z,5.00
2023-07-19T01:28:25.369Z,5.13
2023-07-19T01:28:38.729Z,6.38
2023-07-19T01:28:51.272Z,8.13
2023-07-19T01:29:04.144Z,7.78
2023-07-19T01:29:17.708Z,6.43
2023-07-19T01:29:30.403Z,6.35
2023-07-19T01:29:42.977Z,6.10
2023-07-19T01:29:55.555Z,5.78
2023-07-19T01:30:09.360Z,6.20
2023-07-19T01:30:21.876Z,6.40
2023-07-19T01:30:34.447Z,6.28
2023-07-19T01:30:46.983Z,6.55
2023-07-19T01:31:04.797Z,5.32
2023-07-19T01:31:17.606Z,6.10
2023-07-19T01:31:31.386Z,6.25
2023-07-19T01:31:44.061Z,5.68
2023-07-19T01:31:56.758Z,7.18
2023-07-19T01:32:09.918Z,7.05
2023-07-19T01:32:22.474Z,6.13
2023-07-19T01:32:35.237Z,5.57
2023-07-19T01:32:48.006Z,6.72
2023-07-19T01:33:00.671Z,6.80
2023-07-19T01:33:23.734Z,5.82
2023-07-19T01:33:41.940Z,5.50
2023-07-19T01:33:54.473Z,5.70
2023-07-19T01:34:07.296Z,5.10
2023-07-19T01:34:19.893Z,5.03
2023-07-19T01:34:32.600Z,4.57
2023-07-19T01:34:45.162Z,5.82
2023-07-19T01:34:57.748Z,6.55
2023-07-19T01:35:10.388Z,5.97
2023-07-19T01:35:26.088Z,6.30
2023-07-19T01:35:38.638Z,5.78
2023-07-19T01:35:51.172Z,5.35
2023-07-19T01:36:04.280Z,5.45
2023-07-19T01:36:16.805Z,5.45
2023-07-19T01:36:29.389Z,5.90
2023-07-19T01:36:41.923Z,6.90
2023-07-19T01:36:54.436Z,6.20
2023-07-19T01:37:07.060Z,5.43
2023-07-19T01:37:19.600Z,5.28
2023-07-19T01:37:33.574Z,5.93
2023-07-19T01:37:47.855Z,6.45
2023-07-19T01:38:00.476Z,6.03
2023-07-19T01:38:13.162Z,5.65
2023-07-19T01:38:25.812Z,6.47
2023-07-19T01:38:38.372Z,7.55
2023-07-19T01:38:50.951Z,6.97
2023-07-19T01:39:03.656Z,6.75
2023-07-19T01:39:16.232Z,5.47
2023-07-19T01:39:29.794Z,5.10
2023-07-19T01:39:42.332Z,5.82
2023-07-19T01:39:55.745Z,6.93
2023-07-19T01:40:11.828Z,7.32
2023-07-19T01:40:24.592Z,7.25
2023-07-19T01:40:37.360Z,7.63
2023-07-19T01:40:49.968Z,6.90
2023-07-19T01:41:02.725Z,6.43
2023-07-19T01:41:16.239Z,5.53
2023-07-19T01:41:28.779Z,5.85
2023-07-19T01:41:41.439Z,5.75
2023-07-19T01:41:54.037Z,5.85
2023-07-19T01:42:07.505Z,6.60
2023-07-19T01:42:20.094Z,6.60
2023-07-19T01:42:32.899Z,6.88
2023-07-19T01:42:45.465Z,6.20
2023-07-19T01:42:58.971Z,7.35
2023-07-19T01:43:11.541Z,7.32
2023-07-19T01:43:24.149Z,6.45
2023-07-19T01:43:36.770Z,7.63
2023-07-19T01:43:49.607Z,8.70
2023-07-19T01:44:02.166Z,7.93
2023-07-19T01:44:14.878Z,6.72
2023-07-19T01:44:28.752Z,6.25
2023-07-19T01:44:41.424Z,6.35
2023-07-19T01:44:56.229Z,6.85
2023-07-19T01:45:09.469Z,7.03
2023-07-19T01:45:22.108Z,8.05
2023-07-19T01:45:34.680Z,7.97
2023-07-19T01:45:47.344Z,6.60
2023-07-19T01:46:00.360Z,5.95
2023-07-19T01:46:13.062Z,5.30
2023-07-19T01:46:26.662Z,5.50
2023-07-19T01:46:40.874Z,6.63
2023-07-19T01:46:53.449Z,6.82
2023-07-19T01:47:06.070Z,6.30
2023-07-19T01:47:18.606Z,5.70
2023-07-19T01:47:31.188Z,6.35
2023-07-19T01:47:44.172Z,6.68
2023-07-19T01:47:56.977Z,7.13
2023-07-19T01:48:09.525Z,6.10
2023-07-19T01:48:23.064Z,5.97
2023-07-19T01:48:35.652Z,7.60
2023-07-19T01:48:48.221Z,7.97
2023-07-19T01:49:00.797Z,6.32
2023-07-19T01:49:13.344Z,6.38
2023-07-19T01:49:25.884Z,6.40
2023-07-19T01:49:40.167Z,7.03
2023-07-19T01:49:52.833Z,6.35
2023-07-19T01:50:06.263Z,6.40
2023-07-19T01:50:19.821Z,6.38
2023-07-19T01:50:32.490Z,6.18
2023-07-19T01:50:48.502Z,6.55
2023-07-19T01:51:01.079Z,6.20
2023-07-19T01:51:13.654Z,6.38
2023-07-19T01:51:26.198Z,6.38
2023-07-19T01:51:39.002Z,5.70
2023-07-19T01:51:51.520Z,6.60
2023-07-19T01:52:04.534Z,7.78
2023-07-19T01:52:18.062Z,7.00
2023-07-19T01:52:30.624Z,6.25
2023-07-19T01:52:44.572Z,6.15
2023-07-19T01:52:57.194Z,6.45
2023-07-19T01:53:09.744Z,6.28
2023-07-19T01:53:22.375Z,6.00
2023-07-19T01:53:34.974Z,6.78
2023-07-19T01:53:47.590Z,6.38
2023-07-19T01:54:00.182Z,5.57
2023-07-19T01:54:13.725Z,6.88
2023-07-19T01:54:26.360Z,7.97
2023-07-19T01:54:38.961Z,8.38
2023-07-19T01:54:51.576Z,8.77
2023-07-19T01:55:04.464Z,7.57
2023-07-19T01:55:17.198Z,5.97
2023-07-19T01:55:29.779Z,6.85
2023-07-19T01:55:43.116Z,6.65
2023-07-19T01:55:58.091Z,5.93
2023-07-19T01:56:10.631Z,5.70
2023-07-19T01:56:23.281Z,6.68
2023-07-19T01:56:35.867Z,7.30
2023-07-19T01:56:48.460Z,7.68
2023-07-19T01:57:01.197Z,7.05
2023-07-19T01:57:14.011Z,6.32
2023-07-19T01:57:26.565Z,5.82
2023-07-19T01:57:39.127Z,6.93
2023-07-19T01:57:52.677Z,6.88
2023-07-19T01:58:05.227Z,7.72
2023-07-19T01:58:17.858Z,7.05
2023-07-19T01:58:30.568Z,6.40
2023-07-19T01:58:43.118Z,6.65
2023-07-19T01:58:55.684Z,6.25
2023-07-19T01:59:08.241Z,5.97
2023-07-19T01:59:20.796Z,5.57
2023-07-19T01:59:33.590Z,5.72
2023-07-19T01:59:46.146Z,6.10
2023-07-19T01:59:59.730Z,7.03
2023-07-19T02:00:13.049Z,7.00
2023-07-19T02:00:25.662Z,6.63
2023-07-19T02:00:38.466Z,7.28
2023-07-19T02:00:53.166Z,7.43
2023-07-19T02:01:05.762Z,7.88
2023-07-19T02:01:19.590Z,6.93
2023-07-19T02:01:32.595Z,5.75
2023-07-19T02:01:45.815Z,5.85
2023-07-19T02:01:59.542Z,6.13
2023-07-19T02:02:12.353Z,6.10
2023-07-19T02:02:25.116Z,6.13
2023-07-19T02:02:37.933Z,6.47
2023-07-19T02:02:50.730Z,7.32
2023-07-19T02:03:04.042Z,7.57
2023-07-19T02:03:16.677Z,6.38
2023-07-19T02:03:30.506Z,6.35
2023-07-19T02:03:43.050Z,6.47
2023-07-19T02:03:55.559Z,7.05
2023-07-19T02:04:08.115Z,6.30
2023-07-19T02:04:20.695Z,6.55
2023-07-19T02:04:33.558Z,6.05
2023-07-19T02:04:46.150Z,5.80
2023-07-19T02:04:58.742Z,6.55
2023-07-19T02:05:11.366Z,7.40
2023-07-19T02:05:24.936Z,7.10
2023-07-19T02:05:37.464Z,7.05
2023-07-19T02:05:57.253Z,7.22
2023-07-19T02:06:09.778Z,6.55
2023-07-19T02:06:22.302Z,6.25
2023-07-19T02:06:34.851Z,6.90
2023-07-19T02:06:47.451Z,7.53
2023-07-19T02:07:00.233Z,7.28
2023-07-19T02:07:12.834Z,6.95
2023-07-19T02:07:26.712Z,6.20
2023-07-19T02:07:39.254Z,7.47
2023-07-19T02:07:53.163Z,8.10
2023-07-19T02:08:05.841Z,6.63
2023-07-19T02:08:18.373Z,6.57
2023-07-19T02:08:30.914Z,7.00
2023-07-19T02:08:43.421Z,6.47
2023-07-19T02:08:56.089Z,6.30
2023-07-19T02:09:08.613Z,6.45
2023-07-19T02:09:22.154Z,6.40
2023-07-19T02:09:34.899Z,7.57
2023-07-19T02:09:47.791Z,9.40
2023-07-19T02:10:00.446Z,8.25
2023-07-19T02:10:12.993Z,6.38
2023-07-19T02:10:25.499Z,6.60
2023-07-19T02:10:38.211Z,6.85
2023-07-19T02:10:50.767Z,6.53
2023-07-19T02:11:04.347Z,6.60
2023-07-19T02:11:16.956Z,7.25
2023-07-19T02:11:29.790Z,7.15
2023-07-19T02:11:42.715Z,7.53
2023-07-19T02:11:55.360Z,6.72
2023-07-19T02:12:09.219Z,5.78
2023-07-19T02:12:21.824Z,5.45
2023-07-19T02:12:34.503Z,6.38
2023-07-19T02:12:47.054Z,7.15
2023-07-19T02:12:59.570Z,8.70
2023-07-19T02:13:12.064Z,7.47
2023-07-19T02:13:25.700Z,5.82
2023-07-19T02:13:38.265Z,6.40
2023-07-19T02:13:50.816Z,6.45
2023-07-19T02:14:03.343Z,6.45
2023-07-19T02:14:16.177Z,6.20
2023-07-19T02:14:28.719Z,6.97
2023-07-19T02:14:41.267Z,8.05
2023-07-19T02:14:56.036Z,7.70
2023-07-19T02:15:09.134Z,6.90
2023-07-19T02:15:21.664Z,6.72
2023-07-19T02:15:34.743Z,7.82
2023-07-19T02:15:47.599Z,7.90
2023-07-19T02:16:00.224Z,7.22
2023-07-19T02:16:12.849Z,6.07
2023-07-19T02:16:25.510Z,6.78
2023-07-19T02:16:39.598Z,6.72
2023-07-19T02:16:52.111Z,6.05
2023-07-19T02:17:05.536Z,6.35
2023-07-19T02:17:18.366Z,6.75
2023-07-19T02:17:30.994Z,6.45
2023-07-19T02:17:43.619Z,6.30
2023-07-19T02:17:56.148Z,7.30
2023-07-19T02:18:08.669Z,7.63
2023-07-19T02:18:23.317Z,6.60
2023-07-19T02:18:35.870Z,6.78
2023-07-19T02:18:48.459Z,6.72
2023-07-19T02:19:01.220Z,7.22
2023-07-19T02:19:13.800Z,7.03
2023-07-19T02:19:26.805Z,6.55
2023-07-19T02:19:39.490Z,6.70
2023-07-19T02:19:53.011Z,6.57
2023-07-19T02:20:06.858Z,6.47
2023-07-19T02:20:20.575Z,6.55
2023-07-19T02:20:33.111Z,6.70
2023-07-19T02:20:46.610Z,6.13
2023-07-19T02:20:59.198Z,6.53
2023-07-19T02:21:11.801Z,7.85
2023-07-19T02:21:24.394Z,7.22
2023-07-19T02:21:36.916Z,6.30
2023-07-19T02:21:49.445Z,5.55
2023-07-19T02:22:03.241Z,6.35
2023-07-19T02:22:16.922Z,6.10
2023-07-19T02:22:29.510Z,5.88
2023-07-19T02:22:42.107Z,5.97
2023-07-19T02:22:56.158Z,6.40
2023-07-19T02:23:08.791Z,7.00
2023-07-19T02:23:23.416Z,6.78
2023-07-19T02:23:36.534Z,5.88
2023-07-19T02:23:49.081Z,6.38
2023-07-19T02:24:02.497Z,7.07
2023-07-19T02:24:16.158Z,6.47
2023-07-19T02:24:28.720Z,6.00
2023-07-19T02:24:41.238Z,6.40
2023-07-19T02:24:53.767Z,7.10
2023-07-19T02:25:06.591Z,7.80
2023-07-19T02:25:19.140Z,7.60
2023-07-19T02:25:32.644Z,7.28
2023-07-19T02:25:45.294Z,6.18
2023-07-19T02:25:57.853Z,6.00
2023-07-19T02:26:10.455Z,5.72
2023-07-19T02:26:22.948Z,5.85
2023-07-19T02:26:35.559Z,6.70
2023-07-19T02:26:48.089Z,7.20
2023-07-19T02:27:00.607Z,6.65
2023-07-19T02:27:13.396Z,6.43
2023-07-19T02:27:26.222Z,7.65
2023-07-19T02:27:39.718Z,7.97
2023-07-19T02:27:52.264Z,6.63
2023-07-19T02:28:05.134Z,6.20
2023-07-19T02:28:17.906Z,6.07
2023-07-19T02:28:30.552Z,6.05
2023-07-19T02:28:43.229Z,5.43
2023-07-19T02:28:55.813Z,6.95
2023-07-19T02:29:08.377Z,8.40
2023-07-19T02:29:20.921Z,10.18
2023-07-19T02:29:34.449Z,7.85
2023-07-19T02:29:47.090Z,8.02
2023-07-19T02:29:59.693Z,7.63
2023-07-19T02:30:12.909Z,6.95
2023-07-19T02:30:25.465Z,7.13
2023-07-19T02:30:42.430Z,6.80
2023-07-19T02:30:55.029Z,5.32
2023-07-19T02:31:08.505Z,5.22
2023-07-19T02:31:21.281Z,5.80
2023-07-19T02:31:36.789Z,6.95
2023-07-19T02:31:50.029Z,7.18
2023-07-19T02:32:04.973Z,9.02
2023-07-19T02:32:17.572Z,9.85
2023-07-19T02:32:30.174Z,7.13
2023-07-19T02:32:42.807Z,6.35
2023-07-19T02:32:55.373Z,5.95
2023-07-19T02:33:07.962Z,5.80
2023-07-19T02:33:21.474Z,6.03
2023-07-19T02:33:34.348Z,5.90
2023-07-19T02:33:46.902Z,6.25
2023-07-19T02:33:59.465Z,8.20
2023-07-19T02:34:12.001Z,8.52
2023-07-19T02:34:24.533Z,8.40
2023-07-19T02:34:37.039Z,7.13
2023-07-19T02:34:49.552Z,6.13
2023-07-19T02:35:02.296Z,6.32
2023-07-19T02:35:15.957Z,7.50
2023-07-19T02:35:28.801Z,7.55
2023-07-19T02:35:42.650Z,7.00
2023-07-19T02:35:56.005Z,8.23
2023-07-19T02:36:10.941Z,8.43
2023-07-19T02:36:23.465Z,8.18
2023-07-19T02:36:36.137Z,7.30
2023-07-19T02:36:51.154Z,6.65
2023-07-19T02:37:05.114Z,6.47
2023-07-19T02:37:17.833Z,6.18
2023-07-19T02:37:30.360Z,5.57
2023-07-19T02:37:42.865Z,7.15
2023-07-19T02:37:56.770Z,7.95
2023-07-19T02:38:10.335Z,7.03
2023-07-19T02:38:23.013Z,6.20
2023-07-19T02:38:35.703Z,6.88
2023-07-19T02:38:49.309Z,6.65
2023-07-19T02:39:02.061Z,6.63
2023-07-19T02:39:14.656Z,7.07
2023-07-19T02:39:31.189Z,6.60
2023-07-19T02:39:43.805Z,6.20
2023-07-19T02:39:56.435Z,6.82
2023-07-19T02:40:09.463Z,6.28
2023-07-19T02:40:21.996Z,5.90
2023-07-19T02:40:34.923Z,5.90
2023-07-19T02:40:48.543Z,5.78
2023-07-19T02:41:02.061Z,5.80
2023-07-19T02:41:14.626Z,6.18
2023-07-19T02:41:27.171Z,6.07
2023-07-19T02:41:41.661Z,6.05
2023-07-19T02:41:54.714Z,7.80
2023-07-19T02:42:07.653Z,8.13
2023-07-19T02:42:21.335Z,6.20
2023-07-19T02:42:33.880Z,6.30
2023-07-19T02:42:46.602Z,6.88
2023-07-19T02:42:59.196Z,6.25
2023-07-19T02:43:11.737Z,5.97
2023-07-19T02:43:25.346Z,5.68
2023-07-19T02:43:37.898Z,5.57
2023-07-19T02:43:50.631Z,6.07
2023-07-19T02:44:03.167Z,7.10
2023-07-19T02:44:16.699Z,8.07
2023-07-19T02:44:29.224Z,7.38
2023-07-19T02:44:41.734Z,6.60
2023-07-19T02:44:54.304Z,6.32
2023-07-19T02:45:07.915Z,5.93
2023-07-19T02:45:20.460Z,5.65
2023-07-19T02:45:35.226Z,5.65
2023-07-19T02:45:48.226Z,5.68
2023-07-19T02:46:00.751Z,5.35
2023-07-19T02:46:14.355Z,6.55
2023-07-19T02:46:26.996Z,7.38
2023-07-19T02:46:39.637Z,7.30
2023-07-19T02:46:52.311Z,7.55
2023-07-19T02:47:05.629Z,7.40
2023-07-19T02:47:18.525Z,6.20
2023-07-19T02:47:31.176Z,6.30
2023-07-19T02:47:43.719Z,5.93
2023-07-19T02:47:57.326Z,5.63
2023-07-19T02:48:10.088Z,5.80
2023-07-19T02:48:23.357Z,5.85
2023-07-19T02:48:36.358Z,5.35
2023-07-19T02:48:48.937Z,5.50
2023-07-19T02:49:01.464Z,5.57
2023-07-19T02:49:14.266Z,5.30
2023-07-19T02:49:26.848Z,6.25
2023-07-19T02:49:40.851Z,6.40
2023-07-19T02:49:54.434Z,6.20
2023-07-19T02:50:07.944Z,6.38
2023-07-19T02:50:20.938Z,5.85
2023-07-19T02:50:33.551Z,7.10
2023-07-19T02:50:46.583Z,7.68
2023-07-19T02:50:59.865Z,7.32
2023-07-19T02:51:12.728Z,7.05
2023-07-19T02:51:25.291Z,5.85
2023-07-19T02:51:38.870Z,5.30
2023-07-19T02:51:51.464Z,5.78
2023-07-19T02:52:04.361Z,6.47
2023-07-19T02:52:16.910Z,6.72
2023-07-19T02:52:29.459Z,6.53
2023-07-19T02:52:42.823Z,5.95
2023-07-19T02:52:56.758Z,5.43
2023-07-19T02:53:09.402Z,6.20
2023-07-19T02:53:21.959Z,6.47
2023-07-19T02:53:35.682Z,6.20
2023-07-19T02:53:50.221Z,6.25
2023-07-19T02:54:02.791Z,6.22
2023-07-19T02:54:15.317Z,6.88
2023-07-19T02:54:27.882Z,6.95
2023-07-19T02:54:40.624Z,6.10
2023-07-19T02:54:53.443Z,6.07
2023-07-19T02:55:06.713Z,5.78
2023-07-19T02:55:19.465Z,6.00
2023-07-19T02:55:33.020Z,6.30
2023-07-19T02:55:46.308Z,5.65
2023-07-19T02:55:58.830Z,5.22